sensor_id;sensor_type;location;lat;lon;timestamp;pressure;altitude;pressure_sealevel;temperature;humidity
2294;BME280;1155;42.644;23.264;2023-04-07T00:02:02;60171.28;;;-140.67;46.19
2294;BME280;1155;42.644;23.264;2023-04-07T00:04:29;60202.00;;;-140.67;46.83
2294;BME280;1155;42.644;23.264;2023-04-07T00:06:57;60193.81;;;-140.67;46.62
2294;BME280;1155;42.644;23.264;2023-04-07T00:09:24;60212.22;;;-140.67;46.53
2294;BME280;1155;42.644;23.264;2023-04-07T00:11:51;60191.75;;;-140.67;46.36
2294;BME280;1155;42.644;23.264;2023-04-07T00:14:18;60185.59;;;-140.67;47.30
2294;BME280;1155;42.644;23.264;2023-04-07T00:16:45;60171.28;;;-140.67;49.03
2294;BME280;1155;42.644;23.264;2023-04-07T00:19:11;60199.94;;;-140.67;48.44
2294;BME280;1155;42.644;23.264;2023-04-07T00:21:39;60204.03;;;-140.67;47.51
2294;BME280;1155;42.644;23.264;2023-04-07T00:24:07;60197.91;;;-140.67;47.39
2294;BME280;1155;42.644;23.264;2023-04-07T00:26:34;60177.41;;;-140.67;46.85
2294;BME280;1155;42.644;23.264;2023-04-07T00:29:01;60189.72;;;-140.67;46.02
2294;BME280;1155;42.644;23.264;2023-04-07T00:31:27;60195.84;;;-140.67;46.25
2294;BME280;1155;42.644;23.264;2023-04-07T00:33:56;60175.38;;;-140.67;48.19
2294;BME280;1155;42.644;23.264;2023-04-07T00:36:23;60187.66;;;-140.67;47.11
2294;BME280;1155;42.644;23.264;2023-04-07T00:38:51;60187.66;;;-140.67;48.13
2294;BME280;1155;42.644;23.264;2023-04-07T00:41:22;60204.03;;;-140.67;46.44
2294;BME280;1155;42.644;23.264;2023-04-07T00:43:49;60169.22;;;-140.67;48.00
2294;BME280;1155;42.644;23.264;2023-04-07T00:46:16;60185.59;;;-140.67;48.44
2294;BME280;1155;42.644;23.264;2023-04-07T00:48:43;60187.66;;;-140.67;48.72
2294;BME280;1155;42.644;23.264;2023-04-07T00:51:11;60179.47;;;-140.67;48.07
2294;BME280;1155;42.644;23.264;2023-04-07T00:53:38;60179.47;;;-140.67;46.68
2294;BME280;1155;42.644;23.264;2023-04-07T00:56:06;60197.91;;;-140.67;46.25
2294;BME280;1155;42.644;23.264;2023-04-07T00:58:34;60179.47;;;-140.67;46.40
2294;BME280;1155;42.644;23.264;2023-04-07T01:01:05;60191.75;;;-140.67;47.72
2294;BME280;1155;42.644;23.264;2023-04-07T01:03:35;60167.19;;;-140.67;47.54
2294;BME280;1155;42.644;23.264;2023-04-07T01:06:07;60181.50;;;-140.67;46.19
2294;BME280;1155;42.644;23.264;2023-04-07T01:08:41;60179.47;;;-140.67;47.06
2294;BME280;1155;42.644;23.264;2023-04-07T01:11:20;60202.00;;;-140.67;48.41
2294;BME280;1155;42.644;23.264;2023-04-07T01:13:51;60193.81;;;-140.67;47.33
2294;BME280;1155;42.644;23.264;2023-04-07T01:16:23;60191.75;;;-140.67;46.73
2294;BME280;1155;42.644;23.264;2023-04-07T01:18:53;60199.94;;;-140.67;47.41
2294;BME280;1155;42.644;23.264;2023-04-07T01:21:22;60202.00;;;-140.67;47.59
2294;BME280;1155;42.644;23.264;2023-04-07T01:24:02;60173.31;;;-140.67;46.89
2294;BME280;1155;42.644;23.264;2023-04-07T01:26:33;60161.03;;;-140.67;46.81
2294;BME280;1155;42.644;23.264;2023-04-07T01:29:29;60187.66;;;-140.67;47.87
2294;BME280;1155;42.644;23.264;2023-04-07T01:32:01;60193.81;;;-140.67;46.73
2294;BME280;1155;42.644;23.264;2023-04-07T01:34:30;60210.19;;;-140.67;46.08
2294;BME280;1155;42.644;23.264;2023-04-07T01:37:00;60195.84;;;-140.67;46.05
2294;BME280;1155;42.644;23.264;2023-04-07T01:39:27;60193.81;;;-140.67;45.24
2294;BME280;1155;42.644;23.264;2023-04-07T01:41:58;60175.38;;;-140.67;44.77
2294;BME280;1155;42.644;23.264;2023-04-07T01:44:28;60191.75;;;-140.67;44.64
2294;BME280;1155;42.644;23.264;2023-04-07T01:46:56;60171.28;;;-140.67;44.92
2294;BME280;1155;42.644;23.264;2023-04-07T01:49:24;60179.47;;;-140.67;44.20
2294;BME280;1155;42.644;23.264;2023-04-07T01:51:53;60167.19;;;-140.67;44.22
2294;BME280;1155;42.644;23.264;2023-04-07T01:54:21;60185.59;;;-140.67;44.46
2294;BME280;1155;42.644;23.264;2023-04-07T01:56:48;60195.84;;;-140.67;43.19
2294;BME280;1155;42.644;23.264;2023-04-07T01:59:16;60187.66;;;-140.67;42.41
2294;BME280;1155;42.644;23.264;2023-04-07T02:01:44;60173.31;;;-140.67;43.30
2294;BME280;1155;42.644;23.264;2023-04-07T02:04:21;60191.75;;;-140.67;44.09
2294;BME280;1155;42.644;23.264;2023-04-07T02:06:54;60130.31;;;-140.67;45.29
2294;BME280;1155;42.644;23.264;2023-04-07T02:09:26;60167.19;;;-140.67;45.24
2294;BME280;1155;42.644;23.264;2023-04-07T02:11:57;60189.72;;;-140.67;44.44
2294;BME280;1155;42.644;23.264;2023-04-07T02:14:26;60204.03;;;-140.67;44.20
2294;BME280;1155;42.644;23.264;2023-04-07T02:16:56;60187.66;;;-140.67;43.24
2294;BME280;1155;42.644;23.264;2023-04-07T02:19:27;60195.84;;;-140.67;42.29
2294;BME280;1155;42.644;23.264;2023-04-07T02:21:55;60179.47;;;-140.67;42.60
2294;BME280;1155;42.644;23.264;2023-04-07T02:24:22;60175.38;;;-140.67;43.00
2294;BME280;1155;42.644;23.264;2023-04-07T02:26:49;60187.66;;;-140.67;42.44
2294;BME280;1155;42.644;23.264;2023-04-07T02:29:16;60181.50;;;-140.67;42.17
2294;BME280;1155;42.644;23.264;2023-04-07T02:31:43;60165.13;;;-140.67;42.83
2294;BME280;1155;42.644;23.264;2023-04-07T02:34:11;60183.56;;;-140.67;42.86
2294;BME280;1155;42.644;23.264;2023-04-07T02:36:41;60169.22;;;-140.67;42.67
2294;BME280;1155;42.644;23.264;2023-04-07T02:39:08;60179.47;;;-140.67;42.32
2294;BME280;1155;42.644;23.264;2023-04-07T02:41:35;60187.66;;;-140.67;42.18
2294;BME280;1155;42.644;23.264;2023-04-07T02:44:01;60191.75;;;-140.67;42.85
2294;BME280;1155;42.644;23.264;2023-04-07T02:46:28;60179.47;;;-140.67;42.36
2294;BME280;1155;42.644;23.264;2023-04-07T02:48:55;60142.59;;;-140.67;42.30
2294;BME280;1155;42.644;23.264;2023-04-07T02:51:24;60187.66;;;-140.67;42.44
2294;BME280;1155;42.644;23.264;2023-04-07T02:53:51;60191.75;;;-140.67;41.95
2294;BME280;1155;42.644;23.264;2023-04-07T02:56:18;60171.28;;;-140.67;42.58
2294;BME280;1155;42.644;23.264;2023-04-07T02:58:45;60191.75;;;-140.67;41.73
2294;BME280;1155;42.644;23.264;2023-04-07T03:01:12;60159.00;;;-140.67;42.79
2294;BME280;1155;42.644;23.264;2023-04-07T03:03:39;60187.66;;;-140.67;42.49
2294;BME280;1155;42.644;23.264;2023-04-07T03:06:06;60199.94;;;-140.67;42.15
2294;BME280;1155;42.644;23.264;2023-04-07T03:08:34;60159.00;;;-140.67;42.18
2294;BME280;1155;42.644;23.264;2023-04-07T03:11:01;60193.81;;;-140.67;42.43
2294;BME280;1155;42.644;23.264;2023-04-07T03:13:28;60167.19;;;-140.67;42.27
2294;BME280;1155;42.644;23.264;2023-04-07T03:15:55;60167.19;;;-140.67;42.06
2294;BME280;1155;42.644;23.264;2023-04-07T03:18:22;60152.84;;;-140.67;41.90
2294;BME280;1155;42.644;23.264;2023-04-07T03:20:49;60183.56;;;-140.67;42.99
2294;BME280;1155;42.644;23.264;2023-04-07T03:23:17;60171.28;;;-140.67;43.03
2294;BME280;1155;42.644;23.264;2023-04-07T03:25:45;60191.75;;;-140.67;43.27
2294;BME280;1155;42.644;23.264;2023-04-07T03:28:12;60169.22;;;-140.67;43.03
2294;BME280;1155;42.644;23.264;2023-04-07T03:30:40;60183.56;;;-140.67;42.77
2294;BME280;1155;42.644;23.264;2023-04-07T03:33:07;60185.59;;;-140.67;43.56
2294;BME280;1155;42.644;23.264;2023-04-07T03:35:33;60204.03;;;-140.67;44.02
2294;BME280;1155;42.644;23.264;2023-04-07T03:38:00;60195.84;;;-140.67;43.32
2294;BME280;1155;42.644;23.264;2023-04-07T03:40:27;60181.50;;;-140.67;44.07
2294;BME280;1155;42.644;23.264;2023-04-07T03:42:56;60175.38;;;-140.67;44.77
2294;BME280;1155;42.644;23.264;2023-04-07T03:45:22;60171.28;;;-140.67;45.02
2294;BME280;1155;42.644;23.264;2023-04-07T03:47:49;60183.56;;;-140.67;45.23
2294;BME280;1155;42.644;23.264;2023-04-07T03:50:18;60173.31;;;-140.67;45.61
2294;BME280;1155;42.644;23.264;2023-04-07T03:52:45;60161.03;;;-140.67;45.72
2294;BME280;1155;42.644;23.264;2023-04-07T03:55:12;60183.56;;;-140.67;45.98
2294;BME280;1155;42.644;23.264;2023-04-07T03:57:39;60167.19;;;-140.67;45.73
2294;BME280;1155;42.644;23.264;2023-04-07T04:00:09;60171.28;;;-140.67;46.74
2294;BME280;1155;42.644;23.264;2023-04-07T04:02:37;60189.72;;;-140.67;46.84
2294;BME280;1155;42.644;23.264;2023-04-07T04:05:04;60179.47;;;-140.67;46.60
2294;BME280;1155;42.644;23.264;2023-04-07T04:07:31;60187.66;;;-140.67;46.43
2294;BME280;1155;42.644;23.264;2023-04-07T04:09:58;60154.91;;;-140.67;44.77
2294;BME280;1155;42.644;23.264;2023-04-07T04:12:25;60195.84;;;-140.67;45.47
2294;BME280;1155;42.644;23.264;2023-04-07T04:14:53;60193.81;;;-140.67;44.72
2294;BME280;1155;42.644;23.264;2023-04-07T04:17:21;60183.56;;;-140.67;44.28
2294;BME280;1155;42.644;23.264;2023-04-07T04:19:48;60191.75;;;-140.67;44.65
2294;BME280;1155;42.644;23.264;2023-04-07T04:22:15;60179.47;;;-140.67;44.97
2294;BME280;1155;42.644;23.264;2023-04-07T04:24:42;60173.31;;;-140.67;43.99
2294;BME280;1155;42.644;23.264;2023-04-07T04:27:09;60173.31;;;-140.67;44.35
2294;BME280;1155;42.644;23.264;2023-04-07T04:29:37;60159.00;;;-140.67;44.28
2294;BME280;1155;42.644;23.264;2023-04-07T04:32:04;60165.13;;;-140.67;44.01
2294;BME280;1155;42.644;23.264;2023-04-07T04:34:32;60159.00;;;-140.67;44.25
2294;BME280;1155;42.644;23.264;2023-04-07T04:36:59;60204.03;;;-140.67;43.82
2294;BME280;1155;42.644;23.264;2023-04-07T04:39:26;60195.84;;;-140.67;43.58
2294;BME280;1155;42.644;23.264;2023-04-07T04:41:55;60181.50;;;-140.67;43.34
2294;BME280;1155;42.644;23.264;2023-04-07T04:44:22;60199.94;;;-140.67;43.15
2294;BME280;1155;42.644;23.264;2023-04-07T04:46:49;60152.84;;;-140.67;42.95
2294;BME280;1155;42.644;23.264;2023-04-07T04:49:16;60156.94;;;-140.67;42.45
2294;BME280;1155;42.644;23.264;2023-04-07T04:51:45;60199.94;;;-140.67;42.73
2294;BME280;1155;42.644;23.264;2023-04-07T04:54:11;60159.00;;;-140.67;41.88
2294;BME280;1155;42.644;23.264;2023-04-07T04:56:38;60183.56;;;-140.67;42.28
2294;BME280;1155;42.644;23.264;2023-04-07T04:59:05;60183.56;;;-140.67;42.60
2294;BME280;1155;42.644;23.264;2023-04-07T05:01:32;60150.81;;;-140.67;41.85
2294;BME280;1155;42.644;23.264;2023-04-07T05:03:59;60195.84;;;-140.67;40.64
2294;BME280;1155;42.644;23.264;2023-04-07T05:06:26;60154.91;;;-140.67;40.46
2294;BME280;1155;42.644;23.264;2023-04-07T05:08:55;60185.59;;;-140.67;40.25
2294;BME280;1155;42.644;23.264;2023-04-07T05:11:22;60208.13;;;-140.67;39.35
2294;BME280;1155;42.644;23.264;2023-04-07T05:13:49;60159.00;;;-140.67;39.13
2294;BME280;1155;42.644;23.264;2023-04-07T05:16:16;60152.84;;;-140.67;40.17
2294;BME280;1155;42.644;23.264;2023-04-07T05:18:43;60156.94;;;-140.67;39.39
2294;BME280;1155;42.644;23.264;2023-04-07T05:21:10;60185.59;;;-140.67;38.80
2294;BME280;1155;42.644;23.264;2023-04-07T05:23:36;60171.28;;;-140.67;38.93
2294;BME280;1155;42.644;23.264;2023-04-07T05:26:04;60171.28;;;-140.67;39.41
2294;BME280;1155;42.644;23.264;2023-04-07T05:28:31;60175.38;;;-140.67;39.58
2294;BME280;1155;42.644;23.264;2023-04-07T05:30:58;60152.84;;;-140.67;38.85
2294;BME280;1155;42.644;23.264;2023-04-07T05:33:25;60185.59;;;-140.67;38.53
2294;BME280;1155;42.644;23.264;2023-04-07T05:35:52;60159.00;;;-140.67;38.19
2294;BME280;1155;42.644;23.264;2023-04-07T05:38:22;60154.91;;;-140.67;39.09
2294;BME280;1155;42.644;23.264;2023-04-07T05:40:49;60187.66;;;-140.67;38.78
2294;BME280;1155;42.644;23.264;2023-04-07T05:43:17;60187.66;;;-140.67;38.41
2294;BME280;1155;42.644;23.264;2023-04-07T05:45:46;60165.13;;;-140.67;38.64
2294;BME280;1155;42.644;23.264;2023-04-07T05:48:13;60179.47;;;-140.67;38.28
2294;BME280;1155;42.644;23.264;2023-04-07T05:50:40;60173.31;;;-140.67;38.30
2294;BME280;1155;42.644;23.264;2023-04-07T05:53:07;60138.50;;;-140.67;38.65
2294;BME280;1155;42.644;23.264;2023-04-07T05:55:34;60161.03;;;-140.67;37.81
2294;BME280;1155;42.644;23.264;2023-04-07T05:58:01;60163.09;;;-140.67;38.64
2294;BME280;1155;42.644;23.264;2023-04-07T06:00:30;60163.09;;;-140.67;38.67
2294;BME280;1155;42.644;23.264;2023-04-07T06:02:57;60171.28;;;-140.67;38.35
2294;BME280;1155;42.644;23.264;2023-04-07T06:05:23;60165.13;;;-140.67;37.81
2294;BME280;1155;42.644;23.264;2023-04-07T06:07:51;60159.00;;;-140.67;38.28
2294;BME280;1155;42.644;23.264;2023-04-07T06:10:18;60146.72;;;-140.67;38.46
2294;BME280;1155;42.644;23.264;2023-04-07T06:12:45;60193.81;;;-140.67;38.64
2294;BME280;1155;42.644;23.264;2023-04-07T06:15:12;60191.75;;;-140.67;37.81
2294;BME280;1155;42.644;23.264;2023-04-07T06:17:40;60154.91;;;-140.67;37.92
2294;BME280;1155;42.644;23.264;2023-04-07T06:20:08;60169.22;;;-140.67;37.95
2294;BME280;1155;42.644;23.264;2023-04-07T06:22:37;60144.66;;;-140.67;38.28
2294;BME280;1155;42.644;23.264;2023-04-07T06:25:04;60167.19;;;-140.67;38.20
2294;BME280;1155;42.644;23.264;2023-04-07T06:27:31;60171.28;;;-140.67;37.35
2294;BME280;1155;42.644;23.264;2023-04-07T06:29:58;60175.38;;;-140.67;37.00
2294;BME280;1155;42.644;23.264;2023-04-07T06:32:25;60187.66;;;-140.67;36.21
2294;BME280;1155;42.644;23.264;2023-04-07T06:34:54;60187.66;;;-140.67;36.96
2294;BME280;1155;42.644;23.264;2023-04-07T06:37:20;60179.47;;;-140.67;36.47
2294;BME280;1155;42.644;23.264;2023-04-07T06:39:49;60169.22;;;-140.67;37.10
2294;BME280;1155;42.644;23.264;2023-04-07T06:42:15;60159.00;;;-140.67;37.43
2294;BME280;1155;42.644;23.264;2023-04-07T06:44:43;60179.47;;;-140.67;37.43
2294;BME280;1155;42.644;23.264;2023-04-07T06:47:10;60154.91;;;-140.67;36.73
2294;BME280;1155;42.644;23.264;2023-04-07T06:49:37;60187.66;;;-140.67;36.97
2294;BME280;1155;42.644;23.264;2023-04-07T06:52:05;60146.72;;;-140.67;37.54
2294;BME280;1155;42.644;23.264;2023-04-07T06:54:33;60163.09;;;-140.67;35.83
2294;BME280;1155;42.644;23.264;2023-04-07T06:57:00;60185.59;;;-140.67;36.02
2294;BME280;1155;42.644;23.264;2023-04-07T06:59:27;60179.47;;;-140.67;36.01
2294;BME280;1155;42.644;23.264;2023-04-07T07:01:54;60187.66;;;-140.67;36.10
2294;BME280;1155;42.644;23.264;2023-04-07T07:04:20;60167.19;;;-140.67;35.98
2294;BME280;1155;42.644;23.264;2023-04-07T07:06:47;60181.50;;;-140.67;35.86
2294;BME280;1155;42.644;23.264;2023-04-07T07:09:16;60175.38;;;-140.67;35.69
2294;BME280;1155;42.644;23.264;2023-04-07T07:11:43;60142.59;;;-140.67;36.92
2294;BME280;1155;42.644;23.264;2023-04-07T07:14:11;60150.81;;;-140.67;35.59
2294;BME280;1155;42.644;23.264;2023-04-07T07:16:39;60169.22;;;-140.67;35.38
2294;BME280;1155;42.644;23.264;2023-04-07T07:19:06;60167.19;;;-140.67;34.82
2294;BME280;1155;42.644;23.264;2023-04-07T07:21:34;60159.00;;;-140.67;35.07
2294;BME280;1155;42.644;23.264;2023-04-07T07:24:04;60148.75;;;-140.67;35.04
2294;BME280;1155;42.644;23.264;2023-04-07T07:26:32;60173.31;;;-140.67;34.88
2294;BME280;1155;42.644;23.264;2023-04-07T07:28:59;60148.75;;;-140.67;35.39
2294;BME280;1155;42.644;23.264;2023-04-07T07:31:26;60154.91;;;-140.67;34.52
2294;BME280;1155;42.644;23.264;2023-04-07T07:33:53;60154.91;;;-140.67;34.56
2294;BME280;1155;42.644;23.264;2023-04-07T07:36:19;60142.59;;;-140.67;33.57
2294;BME280;1155;42.644;23.264;2023-04-07T07:38:48;60167.19;;;-140.67;33.62
2294;BME280;1155;42.644;23.264;2023-04-07T07:41:15;60163.09;;;-140.67;32.39
2294;BME280;1155;42.644;23.264;2023-04-07T07:43:44;60138.50;;;-140.67;31.87
2294;BME280;1155;42.644;23.264;2023-04-07T07:46:10;60150.81;;;-140.67;32.84
2294;BME280;1155;42.644;23.264;2023-04-07T07:48:37;60161.03;;;-140.67;31.59
2294;BME280;1155;42.644;23.264;2023-04-07T07:51:04;60154.91;;;-140.67;31.11
2294;BME280;1155;42.644;23.264;2023-04-07T07:53:32;60154.91;;;-140.67;30.35
2294;BME280;1155;42.644;23.264;2023-04-07T07:55:59;60146.72;;;-140.67;30.24
2294;BME280;1155;42.644;23.264;2023-04-07T07:58:26;60154.91;;;-140.67;31.19
2294;BME280;1155;42.644;23.264;2023-04-07T08:00:54;60161.03;;;-140.67;30.74
2294;BME280;1155;42.644;23.264;2023-04-07T08:03:21;60154.91;;;-140.67;31.06
2294;BME280;1155;42.644;23.264;2023-04-07T08:05:49;60142.59;;;-140.67;30.58
2294;BME280;1155;42.644;23.264;2023-04-07T08:08:15;60130.31;;;-140.67;31.09
2294;BME280;1155;42.644;23.264;2023-04-07T08:10:42;60140.56;;;-140.67;30.64
2294;BME280;1155;42.644;23.264;2023-04-07T08:13:09;60191.75;;;-140.67;30.75
2294;BME280;1155;42.644;23.264;2023-04-07T08:15:36;60161.03;;;-140.67;31.54
2294;BME280;1155;42.644;23.264;2023-04-07T08:18:04;60136.47;;;-140.67;29.54
2294;BME280;1155;42.644;23.264;2023-04-07T08:20:32;60146.72;;;-140.67;28.90
2294;BME280;1155;42.644;23.264;2023-04-07T08:22:59;60163.09;;;-140.67;29.87
2294;BME280;1155;42.644;23.264;2023-04-07T08:25:27;60146.72;;;-140.67;29.38
2294;BME280;1155;42.644;23.264;2023-04-07T08:27:54;60171.28;;;-140.67;30.10
2294;BME280;1155;42.644;23.264;2023-04-07T08:30:21;60154.91;;;-140.67;30.01
2294;BME280;1155;42.644;23.264;2023-04-07T08:32:47;60179.47;;;-140.67;29.40
2294;BME280;1155;42.644;23.264;2023-04-07T08:35:16;60134.41;;;-140.67;29.13
2294;BME280;1155;42.644;23.264;2023-04-07T08:37:43;60138.50;;;-140.67;30.98
2294;BME280;1155;42.644;23.264;2023-04-07T08:40:10;60138.50;;;-140.67;30.58
2294;BME280;1155;42.644;23.264;2023-04-07T08:42:40;60150.81;;;-140.67;30.84
2294;BME280;1155;42.644;23.264;2023-04-07T08:45:08;60154.91;;;-140.67;30.84
2294;BME280;1155;42.644;23.264;2023-04-07T08:47:36;60148.75;;;-140.67;31.27
2294;BME280;1155;42.644;23.264;2023-04-07T08:50:07;60154.91;;;-140.67;31.43
2294;BME280;1155;42.644;23.264;2023-04-07T08:52:40;60150.81;;;-140.67;31.09
2294;BME280;1155;42.644;23.264;2023-04-07T08:55:10;60187.66;;;-140.67;32.49
2294;BME280;1155;42.644;23.264;2023-04-07T08:57:37;60138.50;;;-140.67;31.14
2294;BME280;1155;42.644;23.264;2023-04-07T09:00:05;60134.41;;;-140.67;30.22
2294;BME280;1155;42.644;23.264;2023-04-07T09:02:32;60142.59;;;-140.67;29.81
2294;BME280;1155;42.644;23.264;2023-04-07T09:05:00;60169.22;;;-140.67;28.73
2294;BME280;1155;42.644;23.264;2023-04-07T09:07:30;60124.19;;;-140.67;27.94
2294;BME280;1155;42.644;23.264;2023-04-07T09:09:58;60175.38;;;-140.67;27.51
2294;BME280;1155;42.644;23.264;2023-04-07T09:12:26;60167.19;;;-140.67;26.50
2294;BME280;1155;42.644;23.264;2023-04-07T09:14:53;60148.75;;;-140.67;28.00
2294;BME280;1155;42.644;23.264;2023-04-07T09:17:20;60150.81;;;-140.67;28.71
2294;BME280;1155;42.644;23.264;2023-04-07T09:19:47;60171.28;;;-140.67;27.11
2294;BME280;1155;42.644;23.264;2023-04-07T09:22:14;60163.09;;;-140.67;26.43
2294;BME280;1155;42.644;23.264;2023-04-07T09:24:41;60187.66;;;-140.67;27.34
2294;BME280;1155;42.644;23.264;2023-04-07T09:27:11;60154.91;;;-140.67;27.21
2294;BME280;1155;42.644;23.264;2023-04-07T09:29:39;60146.72;;;-140.67;27.88
2294;BME280;1155;42.644;23.264;2023-04-07T09:32:06;60150.81;;;-140.67;27.32
2294;BME280;1155;42.644;23.264;2023-04-07T09:34:35;60154.91;;;-140.67;26.95
2294;BME280;1155;42.644;23.264;2023-04-07T09:37:03;60150.81;;;-140.67;28.00
2294;BME280;1155;42.644;23.264;2023-04-07T09:39:31;60159.00;;;-140.67;28.05
2294;BME280;1155;42.644;23.264;2023-04-07T09:41:58;60156.94;;;-140.67;29.54
2294;BME280;1155;42.644;23.264;2023-04-07T09:44:26;60148.75;;;-140.67;28.22
2294;BME280;1155;42.644;23.264;2023-04-07T09:46:54;60150.81;;;-140.67;27.74
2294;BME280;1155;42.644;23.264;2023-04-07T09:49:22;60140.56;;;-140.67;28.32
2294;BME280;1155;42.644;23.264;2023-04-07T09:51:53;60154.91;;;-140.67;27.96
2294;BME280;1155;42.644;23.264;2023-04-07T09:54:34;60142.59;;;-140.67;28.34
2294;BME280;1155;42.644;23.264;2023-04-07T09:57:02;60171.28;;;-140.67;26.54
2294;BME280;1155;42.644;23.264;2023-04-07T09:59:32;60167.19;;;-140.67;25.87
2294;BME280;1155;42.644;23.264;2023-04-07T10:01:59;60132.38;;;-140.67;25.72
2294;BME280;1155;42.644;23.264;2023-04-07T10:04:27;60167.19;;;-140.67;25.27
2294;BME280;1155;42.644;23.264;2023-04-07T10:06:56;60138.50;;;-140.67;25.63
2294;BME280;1155;42.644;23.264;2023-04-07T10:09:24;60132.38;;;-140.67;26.48
2294;BME280;1155;42.644;23.264;2023-04-07T10:11:52;60161.03;;;-140.67;26.98
2294;BME280;1155;42.644;23.264;2023-04-07T10:14:21;60179.47;;;-140.67;27.35
2294;BME280;1155;42.644;23.264;2023-04-07T10:16:53;60150.81;;;-140.67;26.53
2294;BME280;1155;42.644;23.264;2023-04-07T10:19:21;60146.72;;;-140.67;25.50
2294;BME280;1155;42.644;23.264;2023-04-07T10:21:50;60146.72;;;-140.67;26.13
2294;BME280;1155;42.644;23.264;2023-04-07T10:24:25;60142.59;;;-140.67;25.71
2294;BME280;1155;42.644;23.264;2023-04-07T10:26:58;60152.84;;;-140.67;27.50
2294;BME280;1155;42.644;23.264;2023-04-07T10:29:28;60154.91;;;-140.67;29.11
2294;BME280;1155;42.644;23.264;2023-04-07T10:32:00;60159.00;;;-140.67;28.08
2294;BME280;1155;42.644;23.264;2023-04-07T10:34:58;60150.81;;;-140.67;27.43
2294;BME280;1155;42.644;23.264;2023-04-07T10:37:25;60148.75;;;-140.67;27.20
2294;BME280;1155;42.644;23.264;2023-04-07T10:42:52;60169.22;;;-140.67;26.71
2294;BME280;1155;42.644;23.264;2023-04-07T10:45:51;60150.81;;;-140.67;26.74
2294;BME280;1155;42.644;23.264;2023-04-07T10:48:22;60128.28;;;-140.67;27.44
2294;BME280;1155;42.644;23.264;2023-04-07T10:51:11;60163.09;;;-140.67;27.67
2294;BME280;1155;42.644;23.264;2023-04-07T10:57:10;60181.50;;;-140.67;27.62
2294;BME280;1155;42.644;23.264;2023-04-07T10:59:40;60111.91;;;-140.67;27.50
2294;BME280;1155;42.644;23.264;2023-04-07T11:02:33;60150.81;;;-140.67;28.14
2294;BME280;1155;42.644;23.264;2023-04-07T11:05:02;60163.09;;;-140.67;28.11
2294;BME280;1155;42.644;23.264;2023-04-07T11:07:47;60163.09;;;-140.67;29.52
2294;BME280;1155;42.644;23.264;2023-04-07T11:10:15;60179.47;;;-140.67;29.53
2294;BME280;1155;42.644;23.264;2023-04-07T11:12:44;60142.59;;;-140.67;29.53
2294;BME280;1155;42.644;23.264;2023-04-07T11:15:24;60165.13;;;-140.67;27.69
2294;BME280;1155;42.644;23.264;2023-04-07T11:18:10;60179.47;;;-140.67;27.42
2294;BME280;1155;42.644;23.264;2023-04-07T11:20:42;60136.47;;;-140.67;26.67
2294;BME280;1155;42.644;23.264;2023-04-07T11:23:10;60140.56;;;-140.67;27.14
2294;BME280;1155;42.644;23.264;2023-04-07T11:25:36;60179.47;;;-140.67;27.54
2294;BME280;1155;42.644;23.264;2023-04-07T11:28:04;60159.00;;;-140.67;28.06
2294;BME280;1155;42.644;23.264;2023-04-07T11:30:31;60138.50;;;-140.67;27.27
2294;BME280;1155;42.644;23.264;2023-04-07T11:32:58;60171.28;;;-140.67;26.85
2294;BME280;1155;42.644;23.264;2023-04-07T11:35:25;60146.72;;;-140.67;27.90
2294;BME280;1155;42.644;23.264;2023-04-07T11:37:57;60126.22;;;-140.67;28.85
2294;BME280;1155;42.644;23.264;2023-04-07T11:40:32;60150.81;;;-140.67;28.61
2294;BME280;1155;42.644;23.264;2023-04-07T11:43:00;60159.00;;;-140.67;28.48
2294;BME280;1155;42.644;23.264;2023-04-07T11:45:27;60144.66;;;-140.67;28.03
2294;BME280;1155;42.644;23.264;2023-04-07T11:47:54;60161.03;;;-140.67;26.98
2294;BME280;1155;42.644;23.264;2023-04-07T11:50:40;60159.00;;;-140.67;29.59
2294;BME280;1155;42.644;23.264;2023-04-07T11:53:08;60134.41;;;-140.67;28.74
2294;BME280;1155;42.644;23.264;2023-04-07T11:55:35;60154.91;;;-140.67;27.45
2294;BME280;1155;42.644;23.264;2023-04-07T11:58:06;60179.47;;;-140.67;27.06
2294;BME280;1155;42.644;23.264;2023-04-07T12:00:34;60140.56;;;-140.67;26.74
2294;BME280;1155;42.644;23.264;2023-04-07T12:03:09;60163.09;;;-140.67;29.21
2294;BME280;1155;42.644;23.264;2023-04-07T12:05:42;60140.56;;;-140.67;28.25
2294;BME280;1155;42.644;23.264;2023-04-07T12:08:11;60156.94;;;-140.67;29.32
2294;BME280;1155;42.644;23.264;2023-04-07T12:10:38;60161.03;;;-140.67;28.28
2294;BME280;1155;42.644;23.264;2023-04-07T12:13:07;60159.00;;;-140.67;28.25
2294;BME280;1155;42.644;23.264;2023-04-07T12:15:34;60146.72;;;-140.67;27.91
2294;BME280;1155;42.644;23.264;2023-04-07T12:18:02;60150.81;;;-140.67;28.40
2294;BME280;1155;42.644;23.264;2023-04-07T12:20:29;60144.66;;;-140.67;29.06
2294;BME280;1155;42.644;23.264;2023-04-07T12:22:56;60134.41;;;-140.67;29.04
2294;BME280;1155;42.644;23.264;2023-04-07T12:25:25;60134.41;;;-140.67;28.87
2294;BME280;1155;42.644;23.264;2023-04-07T12:27:53;60146.72;;;-140.67;29.56
2294;BME280;1155;42.644;23.264;2023-04-07T12:30:20;60156.94;;;-140.67;30.34
2294;BME280;1155;42.644;23.264;2023-04-07T12:32:46;60175.38;;;-140.67;30.08
2294;BME280;1155;42.644;23.264;2023-04-07T12:35:13;60171.28;;;-140.67;29.69
2294;BME280;1155;42.644;23.264;2023-04-07T12:37:40;60159.00;;;-140.67;29.03
2294;BME280;1155;42.644;23.264;2023-04-07T12:40:07;60152.84;;;-140.67;28.14
2294;BME280;1155;42.644;23.264;2023-04-07T12:42:36;60163.09;;;-140.67;28.31
2294;BME280;1155;42.644;23.264;2023-04-07T12:45:03;60171.28;;;-140.67;27.24
2294;BME280;1155;42.644;23.264;2023-04-07T12:47:30;60193.81;;;-140.67;26.18
2294;BME280;1155;42.644;23.264;2023-04-07T12:49:57;60183.56;;;-140.67;26.22
2294;BME280;1155;42.644;23.264;2023-04-07T12:52:23;60181.50;;;-140.67;26.57
2294;BME280;1155;42.644;23.264;2023-04-07T12:54:50;60154.91;;;-140.67;27.13
2294;BME280;1155;42.644;23.264;2023-04-07T12:57:17;60171.28;;;-140.67;27.60
2294;BME280;1155;42.644;23.264;2023-04-07T12:59:46;60167.19;;;-140.67;28.36
2294;BME280;1155;42.644;23.264;2023-04-07T13:02:16;60163.09;;;-140.67;28.09
2294;BME280;1155;42.644;23.264;2023-04-07T13:04:43;60144.66;;;-140.67;29.06